createdAt,value
2019-02-28T00:01:17.678Z,68.50
2019-02-28T00:03:47.370Z,68.70
2019-02-28T00:06:16.864Z,68.80
2019-02-28T00:08:46.316Z,68.80
2019-02-28T00:11:15.814Z,68.80
2019-02-28T00:13:45.419Z,68.90
2019-02-28T00:16:14.958Z,68.90
2019-02-28T00:18:49.474Z,68.90
2019-02-28T00:21:16.175Z,68.90
2019-02-28T00:23:45.629Z,68.90
2019-02-28T00:26:15.101Z,68.80
2019-02-28T00:28:44.736Z,68.70
2019-02-28T00:31:15.270Z,68.70
2019-02-28T00:33:45.142Z,68.60
2019-02-28T00:36:16.362Z,68.60
2019-02-28T00:38:45.690Z,68.70
2019-02-28T00:41:15.174Z,68.70
2019-02-28T00:43:44.720Z,68.70
2019-02-28T00:46:14.250Z,68.80
2019-02-28T00:48:43.830Z,68.80
2019-02-28T00:51:13.304Z,68.80
2019-02-28T00:53:42.825Z,69.00
2019-02-28T00:56:12.390Z,69.00
2019-02-28T00:58:41.921Z,69.10
2019-02-28T01:01:11.688Z,69.00
2019-02-28T01:03:42.070Z,68.90
2019-02-28T01:06:11.620Z,68.90
2019-02-28T01:08:41.139Z,68.80
2019-02-28T01:11:13.202Z,69.00
2019-02-28T01:13:41.735Z,69.10
2019-02-28T01:16:11.206Z,69.30
2019-02-28T01:18:40.762Z,69.30
2019-02-28T01:21:10.234Z,69.30
2019-02-28T01:23:39.887Z,69.30
2019-02-28T01:26:11.802Z,69.50
2019-02-28T01:28:40.378Z,69.50
2019-02-28T01:31:11.604Z,69.50
2019-02-28T01:33:41.022Z,69.50
2019-02-28T01:36:12.321Z,69.50
2019-02-28T01:38:41.686Z,69.70
2019-02-28T01:41:11.845Z,69.90
2019-02-28T01:43:41.332Z,69.90
2019-02-28T01:46:10.870Z,69.80
2019-02-28T01:48:40.356Z,69.70
2019-02-28T01:51:09.944Z,69.60
2019-02-28T01:53:39.482Z,69.50
2019-02-28T01:56:08.962Z,69.40
2019-02-28T01:58:38.575Z,69.30
2019-02-28T02:01:08.097Z,69.30
2019-02-28T02:03:40.720Z,69.30
2019-02-28T02:06:08.842Z,69.40
2019-02-28T02:08:38.476Z,69.40
2019-02-28T02:11:08.025Z,69.40
2019-02-28T02:13:37.650Z,69.50
2019-02-28T02:16:07.230Z,69.60
2019-02-28T02:18:36.718Z,69.80
2019-02-28T02:21:06.292Z,70.30
2019-02-28T02:23:35.716Z,70.50
2019-02-28T02:26:05.206Z,70.40
2019-02-28T02:28:34.793Z,70.50
2019-02-28T02:31:04.276Z,70.40
2019-02-28T02:33:33.830Z,70.70
2019-02-28T02:36:03.377Z,70.70
2019-02-28T02:38:39.836Z,70.80
2019-02-28T02:41:04.966Z,70.90
2019-02-28T02:43:34.444Z,70.70
2019-02-28T02:46:03.936Z,70.70
2019-02-28T02:48:33.409Z,70.80
2019-02-28T02:51:02.960Z,70.70
2019-02-28T02:53:32.610Z,70.80
2019-02-28T02:56:04.074Z,70.70
2019-02-28T02:58:33.153Z,70.70
2019-02-28T03:01:02.683Z,71.00
2019-02-28T03:03:32.219Z,71.00
2019-02-28T03:06:01.660Z,71.00
2019-02-28T03:08:35.741Z,71.10
2019-02-28T03:11:02.330Z,71.30
2019-02-28T03:13:31.857Z,71.60
2019-02-28T03:16:01.450Z,72.30
2019-02-28T03:18:31.026Z,72.00
2019-02-28T03:21:00.526Z,72.10
2019-02-28T03:23:29.978Z,72.20
2019-02-28T03:26:05.175Z,72.30
2019-02-28T03:28:33.267Z,72.30
2019-02-28T03:31:12.207Z,72.70
2019-02-28T03:33:33.978Z,72.70
2019-02-28T03:36:03.670Z,72.60
2019-02-28T03:38:34.591Z,72.70
2019-02-28T03:41:04.155Z,72.80
2019-02-28T03:43:33.634Z,72.80
2019-02-28T03:46:06.260Z,72.70
2019-02-28T03:48:36.303Z,72.70
2019-02-28T03:51:05.816Z,72.80
2019-02-28T03:53:35.335Z,72.90
2019-02-28T03:56:04.902Z,72.90
2019-02-28T03:58:41.231Z,73.00
2019-02-28T04:01:09.418Z,73.20
2019-02-28T04:03:38.260Z,73.30
2019-02-28T04:06:07.733Z,73.30
2019-02-28T04:08:37.274Z,73.40
2019-02-28T04:11:06.782Z,73.40
2019-02-28T04:13:36.265Z,73.50
2019-02-28T04:16:09.001Z,73.50
2019-02-28T04:18:44.210Z,73.40
2019-02-28T04:21:10.280Z,73.20
2019-02-28T04:23:39.320Z,73.30
2019-02-28T04:26:10.492Z,73.40
2019-02-28T04:28:39.979Z,73.20
2019-02-28T04:31:09.454Z,73.30
2019-02-28T04:33:39.344Z,73.20
2019-02-28T04:36:09.042Z,73.20
2019-02-28T04:38:38.596Z,73.20
2019-02-28T04:41:08.101Z,73.50
2019-02-28T04:43:37.514Z,73.40
2019-02-28T04:46:06.931Z,73.50
2019-02-28T04:48:36.487Z,73.60
2019-02-28T04:51:06.595Z,73.50
2019-02-28T04:53:36.209Z,73.40
2019-02-28T04:56:11.166Z,73.50
2019-02-28T04:58:36.698Z,73.50
2019-02-28T05:01:06.103Z,73.50
2019-02-28T05:03:35.683Z,73.30
2019-02-28T05:06:05.177Z,73.40
2019-02-28T05:08:38.586Z,73.30
2019-02-28T05:11:05.771Z,73.60
2019-02-28T05:13:35.267Z,73.60
2019-02-28T05:16:04.773Z,73.50
2019-02-28T05:18:34.223Z,73.40
2019-02-28T05:21:03.633Z,73.70
2019-02-28T05:23:36.143Z,73.50
2019-02-28T05:26:05.769Z,73.60
2019-02-28T05:28:40.368Z,73.60
2019-02-28T05:31:06.432Z,73.60
2019-02-28T05:33:38.437Z,73.70
2019-02-28T05:36:07.074Z,73.80
2019-02-28T05:38:38.580Z,73.90
2019-02-28T05:41:08.026Z,73.90
2019-02-28T05:43:37.457Z,74.00
2019-02-28T05:46:07.037Z,73.80
2019-02-28T05:48:38.759Z,73.80
2019-02-28T05:51:07.607Z,73.90
2019-02-28T05:53:37.052Z,73.90
2019-02-28T05:56:06.582Z,74.00
2019-02-28T05:58:36.125Z,74.20
2019-02-28T06:01:05.708Z,74.20
2019-02-28T06:03:35.179Z,74.20
2019-02-28T06:06:04.731Z,74.20
2019-02-28T06:08:38.688Z,74.30
2019-02-28T06:11:05.406Z,74.10
2019-02-28T06:13:36.978Z,74.00
2019-02-28T06:16:11.190Z,74.00
2019-02-28T06:18:37.172Z,74.10
2019-02-28T06:21:06.762Z,74.00
2019-02-28T06:23:55.124Z,73.90
2019-02-28T06:26:24.745Z,73.80
2019-02-28T06:28:54.283Z,73.80
2019-02-28T06:31:29.955Z,74.60
2019-02-28T06:34:08.399Z,74.30
2019-02-28T06:36:36.800Z,74.30
2019-02-28T06:39:07.070Z,74.40
2019-02-28T06:41:39.845Z,74.40
2019-02-28T06:44:07.645Z,74.60
2019-02-28T06:46:39.872Z,74.70
2019-02-28T06:49:08.117Z,74.70
2019-02-28T06:51:37.577Z,74.80
2019-02-28T06:54:25.935Z,75.20
2019-02-28T06:56:55.566Z,75.30
2019-02-28T06:59:25.031Z,75.80
2019-02-28T07:02:13.390Z,76.00
2019-02-28T07:04:45.483Z,76.10
2019-02-28T07:07:14.977Z,77.00
2019-02-28T07:09:44.415Z,76.60
2019-02-28T07:12:13.972Z,76.70
2019-02-28T07:14:48.081Z,76.70
2019-02-28T07:17:26.803Z,76.90
2019-02-28T07:20:01.297Z,77.10
2019-02-28T07:22:27.455Z,77.40
2019-02-28T07:24:56.907Z,77.30
2019-02-28T07:27:29.625Z,77.40
2019-02-28T07:29:57.545Z,77.60
2019-02-28T07:32:34.392Z,77.50
2019-02-28T07:35:11.737Z,77.80
2019-02-28T07:37:41.591Z,77.90
2019-02-28T07:40:17.089Z,78.00
2019-02-28T07:42:47.081Z,78.00
2019-02-28T07:45:16.713Z,78.10
2019-02-28T07:47:51.494Z,78.20
2019-02-28T07:50:17.616Z,78.40
2019-02-28T07:52:47.118Z,78.60
2019-02-28T07:55:19.012Z,78.60
2019-02-28T07:58:06.713Z,79.60
2019-02-28T08:00:36.365Z,79.10
2019-02-28T08:03:12.775Z,79.10
2019-02-28T08:05:42.383Z,80.00
2019-02-28T08:08:12.365Z,79.50
2019-02-28T08:10:42.105Z,79.80
2019-02-28T08:15:53.384Z,79.90
2019-02-28T08:18:24.188Z,79.90
2019-02-28T08:20:53.599Z,80.20
2019-02-28T08:23:23.111Z,80.40
2019-02-28T08:25:52.731Z,79.30
2019-02-28T08:28:22.842Z,79.30
2019-02-28T08:30:55.355Z,79.30
2019-02-28T08:33:23.420Z,79.20
2019-02-28T08:35:52.974Z,79.30
2019-02-28T08:38:22.579Z,79.60
2019-02-28T08:40:52.255Z,79.80
2019-02-28T08:43:27.026Z,79.80
2019-02-28T08:45:53.945Z,79.70
2019-02-28T08:48:23.853Z,79.80
2019-02-28T08:50:55.856Z,79.90
2019-02-28T08:53:24.783Z,79.80
2019-02-28T08:55:54.443Z,80.00
2019-02-28T08:58:24.083Z,80.10
2019-02-28T09:00:53.817Z,80.10
2019-02-28T09:03:24.257Z,80.00
2019-02-28T09:05:54.749Z,80.10
2019-02-28T09:08:25.383Z,80.10
2019-02-28T09:10:55.484Z,80.10
2019-02-28T09:13:25.173Z,80.20
2019-02-28T09:15:54.807Z,80.10
2019-02-28T09:18:24.363Z,80.10
2019-02-28T09:20:53.879Z,80.40
2019-02-28T09:23:23.628Z,80.40
2019-02-28T09:25:53.393Z,80.90
2019-02-28T09:28:24.354Z,81.30
2019-02-28T09:30:56.499Z,81.70
2019-02-28T09:33:26.077Z,81.80
2019-02-28T09:35:55.631Z,82.10
2019-02-28T09:38:25.215Z,82.50
2019-02-28T09:40:54.759Z,82.50
2019-02-28T09:43:24.857Z,83.60
2019-02-28T09:45:54.377Z,82.90
2019-02-28T09:48:23.925Z,83.60
2019-02-28T09:50:57.941Z,83.50
2019-02-28T09:53:24.563Z,83.50
2019-02-28T09:55:54.119Z,83.40
2019-02-28T09:58:26.149Z,84.30
2019-02-28T10:00:54.801Z,85.00
2019-02-28T10:03:24.363Z,86.00
2019-02-28T10:05:53.771Z,85.70
2019-02-28T10:08:23.257Z,85.10
2019-02-28T10:10:55.819Z,87.00
2019-02-28T10:13:24.001Z,85.60
2019-02-28T10:15:53.486Z,85.50
2019-02-28T10:18:22.938Z,86.70
2019-02-28T10:20:52.639Z,85.90
2019-02-28T10:23:22.237Z,85.40
2019-02-28T10:25:51.743Z,85.30
2019-02-28T10:28:22.361Z,85.70
2019-02-28T10:30:51.920Z,85.50
2019-02-28T10:33:21.627Z,85.50
2019-02-28T10:35:51.203Z,85.70
2019-02-28T10:38:20.742Z,85.70
2019-02-28T10:40:52.453Z,86.30
2019-02-28T10:43:21.427Z,86.80
2019-02-28T10:45:51.051Z,86.60
2019-02-28T10:48:20.663Z,87.10
2019-02-28T10:50:50.229Z,86.80
2019-02-28T10:53:19.760Z,87.00
2019-02-28T10:55:49.390Z,87.50
2019-02-28T10:58:18.911Z,87.60
2019-02-28T11:00:48.606Z,87.80
2019-02-28T11:03:18.592Z,88.10
2019-02-28T11:05:53.477Z,88.20
2019-02-28T11:08:19.549Z,88.30
2019-02-28T11:10:49.186Z,88.40
2019-02-28T11:13:20.155Z,88.50
2019-02-28T11:15:50.312Z,88.80
2019-02-28T11:18:21.004Z,88.80
2019-02-28T11:20:50.729Z,88.80
2019-02-28T11:23:22.059Z,89.10
2019-02-28T11:25:52.977Z,88.50
2019-02-28T11:28:27.954Z,88.40
2019-02-28T11:30:54.100Z,88.50
2019-02-28T11:33:23.911Z,88.80
2019-02-28T11:35:57.897Z,88.50
2019-02-28T11:38:24.888Z,88.40
2019-02-28T11:40:57.293Z,88.80
2019-02-28T11:43:26.818Z,88.80
2019-02-28T11:45:59.885Z,88.80
2019-02-28T11:48:28.136Z,88.50
2019-02-28T11:50:57.700Z,89.00
2019-02-28T11:53:27.416Z,89.10
2019-02-28T11:55:56.917Z,89.30
2019-02-28T11:58:26.506Z,88.80
2019-02-28T12:00:56.301Z,88.40
2019-02-28T12:03:25.826Z,88.10
2019-02-28T12:05:55.402Z,87.90
2019-02-28T12:08:25.173Z,87.70
2019-02-28T12:10:54.648Z,87.70
2019-02-28T12:13:24.142Z,87.90
2019-02-28T12:15:53.798Z,88.50
2019-02-28T12:18:23.296Z,88.50
2019-02-28T12:20:52.901Z,88.50
2019-02-28T12:23:23.417Z,88.30
2019-02-28T12:25:53.949Z,88.20
2019-02-28T12:28:25.222Z,88.20
2019-02-28T12:30:57.254Z,88.10
2019-02-28T12:33:25.904Z,88.10
2019-02-28T12:35:55.494Z,88.20
2019-02-28T12:38:25.900Z,88.40
2019-02-28T12:40:57.909Z,88.20
2019-02-28T12:43:28.100Z,88.00
2019-02-28T12:45:59.964Z,87.90
2019-02-28T12:48:28.803Z,87.80
2019-02-28T12:50:58.298Z,87.90
2019-02-28T12:53:28.632Z,87.90
2019-02-28T12:55:58.054Z,87.70
2019-02-28T12:58:36.563Z,87.50
2019-02-28T13:01:00.092Z,87.50
2019-02-28T13:03:30.334Z,87.40
2019-02-28T13:05:59.842Z,87.60
2019-02-28T13:08:29.421Z,87.40
2019-02-28T13:11:03.136Z,87.40
2019-02-28T13:13:31.829Z,87.40
2019-02-28T13:16:01.401Z,87.40
2019-02-28T13:18:31.016Z,87.40
2019-02-28T13:21:00.590Z,87.60
2019-02-28T13:23:32.766Z,87.70
2019-02-28T13:26:01.287Z,87.90
2019-02-28T13:28:30.754Z,88.20
2019-02-28T13:31:00.282Z,87.90
2019-02-28T13:33:29.851Z,88.00
2019-02-28T13:35:59.408Z,87.70
2019-02-28T13:38:29.045Z,87.90
2019-02-28T13:40:58.536Z,87.70
2019-02-28T13:43:28.765Z,87.60
2019-02-28T13:45:58.364Z,87.30
2019-02-28T13:48:33.161Z,87.20
2019-02-28T13:50:59.291Z,87.20
2019-02-28T13:53:31.573Z,86.80
2019-02-28T13:56:01.330Z,87.20
2019-02-28T13:58:30.852Z,86.20
2019-02-28T14:01:00.362Z,86.60
2019-02-28T14:03:29.894Z,86.20
2019-02-28T14:05:59.306Z,86.30
2019-02-28T14:08:29.792Z,86.20
2019-02-28T14:10:59.207Z,86.10
2019-02-28T14:13:29.945Z,85.70
2019-02-28T14:15:59.989Z,85.70
2019-02-28T14:18:29.456Z,85.80
2019-02-28T14:20:59.504Z,85.90
2019-02-28T14:23:30.169Z,85.90
2019-02-28T14:25:59.604Z,86.00
2019-02-28T14:28:29.165Z,86.00
2019-02-28T14:30:58.774Z,85.90
2019-02-28T14:33:28.360Z,86.00
2019-02-28T14:35:58.008Z,85.80
2019-02-28T14:38:29.514Z,85.70
2019-02-28T14:40:59.471Z,85.80
2019-02-28T14:43:28.993Z,85.80
2019-02-28T14:45:58.686Z,85.90
2019-02-28T14:48:28.361Z,85.80
2019-02-28T14:50:58.936Z,85.70
2019-02-28T14:53:31.134Z,85.80
2019-02-28T14:56:00.786Z,85.90
2019-02-28T14:58:30.556Z,86.00
2019-02-28T15:01:00.303Z,85.90
2019-02-28T15:03:30.046Z,85.90
2019-02-28T15:05:59.852Z,85.90
2019-02-28T15:08:29.544Z,86.10
2019-02-28T15:10:59.228Z,86.00
2019-02-28T15:13:30.456Z,85.90
2019-02-28T15:16:00.666Z,86.00
2019-02-28T15:18:30.230Z,85.70
2019-02-28T15:20:59.899Z,85.80
2019-02-28T15:23:30.882Z,85.60
2019-02-28T15:26:02.041Z,85.50
2019-02-28T15:28:31.723Z,85.40
2019-02-28T15:31:01.466Z,85.30
2019-02-28T15:33:31.252Z,85.40
2019-02-28T15:36:02.924Z,85.40
2019-02-28T15:38:32.594Z,85.50
2019-02-28T15:41:02.293Z,85.50
2019-02-28T15:43:31.994Z,85.60
2019-02-28T15:46:01.632Z,85.40
2019-02-28T15:48:34.218Z,85.20
2019-02-28T15:51:03.511Z,85.30
2019-02-28T15:53:33.237Z,85.40
2019-02-28T15:56:02.911Z,85.30
2019-02-28T15:58:32.502Z,85.40
2019-02-28T16:01:02.000Z,85.90
2019-02-28T16:03:31.824Z,85.40
2019-02-28T16:06:01.455Z,85.30
2019-02-28T16:08:31.126Z,85.10
2019-02-28T16:11:03.277Z,85.10
2019-02-28T16:13:31.842Z,85.00
2019-02-28T16:16:01.320Z,84.80
2019-02-28T16:18:30.779Z,84.70
2019-02-28T16:21:03.674Z,84.70
2019-02-28T16:23:31.661Z,84.80
2019-02-28T16:26:01.502Z,84.70
2019-02-28T16:28:31.150Z,84.70
2019-02-28T16:31:03.295Z,84.70
2019-02-28T16:33:33.472Z,84.70
2019-02-28T16:36:04.398Z,84.80
2019-02-28T16:38:37.150Z,84.80
2019-02-28T16:41:07.169Z,84.80
2019-02-28T16:43:38.156Z,84.90
2019-02-28T16:46:09.122Z,85.10
2019-02-28T16:48:38.788Z,84.90
2019-02-28T16:51:10.004Z,85.20
2019-02-28T16:53:40.564Z,85.20
2019-02-28T16:56:12.931Z,85.30
2019-02-28T16:58:45.222Z,85.50
2019-02-28T17:01:17.468Z,86.10
2019-02-28T17:03:51.604Z,86.10
2019-02-28T17:06:22.046Z,86.90
2019-02-28T17:08:54.525Z,86.70
2019-02-28T17:11:27.308Z,86.50
2019-02-28T17:14:04.776Z,87.50
2019-02-28T17:16:37.114Z,86.60
2019-02-28T17:19:08.733Z,88.00
2019-02-28T17:21:42.292Z,87.50
2019-02-28T17:24:12.204Z,87.10
2019-02-28T17:26:47.674Z,87.20
2019-02-28T17:29:26.123Z,87.20
2019-02-28T17:31:55.818Z,87.50
2019-02-28T17:34:26.934Z,87.50
2019-02-28T17:36:56.550Z,87.60
2019-02-28T17:39:26.443Z,87.70
2019-02-28T17:41:56.046Z,87.60
2019-02-28T17:44:29.058Z,87.80
2019-02-28T17:47:19.341Z,87.60
2019-02-28T17:50:17.105Z,87.60
2019-02-28T17:53:20.899Z,87.60
2019-02-28T17:56:22.864Z,87.70
2019-02-28T17:59:08.023Z,87.70
2019-02-28T18:01:46.296Z,87.70
2019-02-28T18:04:41.396Z,87.80
2019-02-28T18:07:16.577Z,87.80
2019-02-28T18:09:59.194Z,87.70
2019-02-28T18:12:32.434Z,87.80
2019-02-28T18:15:14.067Z,87.70
2019-02-28T18:18:09.823Z,87.70
2019-02-28T18:20:48.114Z,87.80
2019-02-28T18:23:24.850Z,87.70
2019-02-28T18:26:17.007Z,87.90
2019-02-28T18:29:10.474Z,88.00
2019-02-28T18:31:41.921Z,88.00
2019-02-28T18:34:11.345Z,88.10
2019-02-28T18:36:43.532Z,88.10
2019-02-28T18:39:12.408Z,88.20
2019-02-28T18:41:42.988Z,88.20
2019-02-28T18:44:12.770Z,88.30
2019-02-28T18:46:42.187Z,88.50
2019-02-28T18:49:11.615Z,88.40
2019-02-28T18:51:41.065Z,88.60
2019-02-28T18:54:10.600Z,89.40
2019-02-28T18:56:40.108Z,90.00
2019-02-28T18:59:10.588Z,89.80
2019-02-28T19:01:40.003Z,89.30
2019-02-28T19:04:09.681Z,89.40
2019-02-28T19:06:39.104Z,89.50
2019-02-28T19:09:21.739Z,89.50
2019-02-28T19:11:51.502Z,89.60
2019-02-28T19:14:21.151Z,89.60
2019-02-28T19:16:50.748Z,89.60
2019-02-28T19:19:20.430Z,89.70
2019-02-28T19:21:50.449Z,89.60
2019-02-28T19:24:20.015Z,89.70
2019-02-28T19:26:49.565Z,89.60
2019-02-28T19:29:19.311Z,90.00
2019-02-28T19:31:49.129Z,89.80
2019-02-28T19:34:18.773Z,90.00
2019-02-28T19:36:48.531Z,90.00
2019-02-28T19:39:18.029Z,90.00
2019-02-28T19:41:47.631Z,90.00
2019-02-28T19:44:17.099Z,90.10
2019-02-28T19:46:46.541Z,90.10
2019-02-28T19:49:16.065Z,90.10
2019-02-28T19:51:47.197Z,90.10
2019-02-28T19:54:16.798Z,90.10
2019-02-28T19:56:46.218Z,90.20
2019-02-28T19:59:15.783Z,90.20
2019-02-28T20:01:45.468Z,90.20
2019-02-28T20:04:15.572Z,90.30
2019-02-28T20:06:45.207Z,90.20
2019-02-28T20:09:14.613Z,90.30
2019-02-28T20:11:44.167Z,90.30
2019-02-28T20:14:13.617Z,90.30
2019-02-28T20:16:43.132Z,90.40
2019-02-28T20:19:13.239Z,90.40
2019-02-28T20:21:42.885Z,90.40
2019-02-28T20:24:12.467Z,90.50
2019-02-28T20:26:41.970Z,90.50
2019-02-28T20:29:11.482Z,90.60
2019-02-28T20:31:40.899Z,90.60
2019-02-28T20:34:10.432Z,90.60
2019-02-28T20:36:40.087Z,90.60
2019-02-28T20:39:12.001Z,90.60
2019-02-28T20:41:42.410Z,90.60
2019-02-28T20:44:11.901Z,90.70
2019-02-28T20:46:41.452Z,90.60
2019-02-28T20:49:10.993Z,90.70
2019-02-28T20:51:40.547Z,90.60
2019-02-28T20:54:09.973Z,90.70
2019-02-28T20:56:39.512Z,90.70
2019-02-28T20:59:08.997Z,90.80
2019-02-28T21:01:38.519Z,90.80
2019-02-28T21:04:08.028Z,90.80
2019-02-28T21:06:37.691Z,91.00
2019-02-28T21:09:08.261Z,90.90
2019-02-28T21:11:37.697Z,90.90
2019-02-28T21:14:08.270Z,90.90
2019-02-28T21:16:37.720Z,90.90
2019-02-28T21:19:07.362Z,90.90
2019-02-28T21:21:36.871Z,90.90
2019-02-28T21:24:06.395Z,90.90
2019-02-28T21:26:36.047Z,91.00
2019-02-28T21:29:05.665Z,91.00
2019-02-28T21:31:35.095Z,91.00
2019-02-28T21:34:04.843Z,90.90
2019-02-28T21:36:34.323Z,91.10
2019-02-28T21:39:05.638Z,91.00
2019-02-28T21:41:35.109Z,91.10
2019-02-28T21:44:04.703Z,91.00
2019-02-28T21:46:34.132Z,91.10
2019-02-28T21:49:03.632Z,91.10
2019-02-28T21:51:33.267Z,91.10
2019-02-28T21:54:02.736Z,91.30
2019-02-28T21:56:32.267Z,91.50
2019-02-28T21:59:01.771Z,91.30
2019-02-28T22:01:31.328Z,91.30
2019-02-28T22:04:00.844Z,91.30
2019-02-28T22:06:30.343Z,91.30
2019-02-28T22:08:59.883Z,91.40
2019-02-28T22:11:29.379Z,91.40
2019-02-28T22:13:58.787Z,91.40
2019-02-28T22:16:28.265Z,91.40
2019-02-28T22:18:58.482Z,91.50
2019-02-28T22:21:27.993Z,91.80
2019-02-28T22:23:57.541Z,91.70
2019-02-28T22:26:27.023Z,92.00
2019-02-28T22:28:56.570Z,92.30
2019-02-28T22:31:39.963Z,91.80
2019-02-28T22:34:11.231Z,91.70
2019-02-28T22:36:41.724Z,91.80
2019-02-28T22:39:11.376Z,91.80
2019-02-28T22:41:40.859Z,91.80
2019-02-28T22:44:10.491Z,91.70
2019-02-28T22:46:40.015Z,92.00
2019-02-28T22:49:09.478Z,91.70
2019-02-28T22:51:39.035Z,91.80
2019-02-28T22:54:08.578Z,91.70
2019-02-28T22:56:38.070Z,91.70
2019-02-28T22:59:07.525Z,91.70
2019-02-28T23:01:38.593Z,91.70
2019-02-28T23:04:08.195Z,91.70
2019-02-28T23:06:37.691Z,91.60
2019-02-28T23:09:07.259Z,91.80
2019-02-28T23:11:36.734Z,91.90
2019-02-28T23:14:06.323Z,91.70
2019-02-28T23:16:35.807Z,91.90
2019-02-28T23:19:05.469Z,91.90
2019-02-28T23:21:35.019Z,91.90
2019-02-28T23:24:04.628Z,91.80
2019-02-28T23:26:37.191Z,91.70
2019-02-28T23:29:08.912Z,91.70
2019-02-28T23:31:49.951Z,91.80
2019-02-28T23:34:28.134Z,91.80
2019-02-28T23:36:57.661Z,91.70
2019-02-28T23:39:27.091Z,91.80
2019-02-28T23:41:56.538Z,91.70
2019-02-28T23:44:26.062Z,91.80
2019-02-28T23:46:55.553Z,91.80
2019-02-28T23:49:24.991Z,91.80
2019-02-28T23:51:54.429Z,91.80
2019-02-28T23:54:24.054Z,91.80
2019-02-28T23:56:53.499Z,91.80
2019-02-28T23:59:22.982Z,91.80
